createdAt,value
2023-02-13T00:00:09.297Z,4.21
2023-02-13T00:05:32.049Z,4.21
2023-02-13T00:10:35.342Z,4.25
2023-02-13T00:15:38.029Z,4.27
2023-02-13T00:20:40.752Z,4.27
2023-02-13T00:25:43.464Z,4.28
2023-02-13T00:30:46.163Z,4.28
2023-02-13T00:35:48.877Z,4.29
2023-02-13T00:40:51.657Z,4.30
2023-02-13T00:45:54.554Z,4.29
2023-02-13T00:50:57.756Z,4.30
2023-02-13T00:56:01.168Z,4.33
2023-02-13T01:01:04.087Z,4.35
2023-02-13T01:06:07.695Z,4.39
2023-02-13T01:11:10.413Z,4.43
2023-02-13T01:16:13.411Z,4.43
2023-02-13T01:21:21.858Z,4.41
2023-02-13T01:26:25.065Z,4.41
2023-02-13T01:31:27.810Z,4.43
2023-02-13T01:36:30.663Z,4.44
2023-02-13T01:41:33.358Z,4.47
2023-02-13T01:46:42.827Z,4.51
2023-02-13T01:51:49.563Z,4.55
2023-02-13T01:56:59.141Z,4.60
2023-02-13T02:02:03.117Z,4.65
2023-02-13T02:07:14.501Z,4.66
2023-02-13T02:12:32.406Z,4.69
2023-02-13T02:17:35.145Z,4.71
2023-02-13T02:22:58.022Z,4.71
2023-02-13T02:28:16.526Z,4.71
2023-02-13T02:33:33.274Z,4.68
2023-02-13T02:38:52.017Z,4.67
2023-02-13T02:44:20.410Z,4.66
2023-02-13T02:49:42.122Z,4.64
2023-02-13T02:55:08.474Z,4.58
2023-02-13T03:00:30.632Z,4.51
2023-02-13T03:05:55.268Z,4.48
2023-02-13T03:11:17.013Z,4.39
2023-02-13T03:16:43.312Z,4.34
2023-02-13T03:22:27.851Z,4.33
2023-02-13T03:28:07.685Z,4.31
2023-02-13T03:33:19.302Z,4.28
2023-02-13T03:38:28.682Z,4.26
2023-02-13T03:43:55.447Z,4.27
2023-02-13T03:49:18.214Z,4.27
2023-02-13T03:54:54.193Z,4.25
2023-02-13T03:59:58.704Z,4.25
2023-02-13T04:05:14.715Z,4.26
2023-02-13T04:10:19.325Z,4.26
2023-02-13T04:15:30.144Z,4.24
2023-02-13T04:20:33.087Z,4.24
2023-02-13T04:25:41.333Z,4.24
2023-02-13T04:30:44.264Z,4.24
2023-02-13T04:35:47.115Z,4.25
2023-02-13T04:40:49.819Z,4.27
2023-02-13T04:45:52.531Z,4.30
2023-02-13T04:50:55.993Z,4.30
2023-02-13T04:55:58.937Z,4.31
2023-02-13T05:01:01.748Z,4.33
2023-02-13T05:06:04.717Z,4.36
2023-02-13T05:11:07.445Z,4.36
2023-02-13T05:16:10.199Z,4.34
2023-02-13T05:21:31.555Z,4.36
2023-02-13T05:26:34.381Z,4.38
2023-02-13T05:31:37.136Z,4.37
2023-02-13T05:36:40.183Z,4.35
2023-02-13T05:41:49.467Z,4.36
2023-02-13T05:46:53.395Z,4.38
2023-02-13T05:51:56.184Z,4.37
2023-02-13T05:56:58.849Z,4.38
2023-02-13T06:02:01.627Z,4.39
2023-02-13T06:07:04.430Z,4.42
2023-02-13T06:12:07.184Z,4.43
2023-02-13T06:17:09.858Z,4.41
2023-02-13T06:22:12.671Z,4.43
2023-02-13T06:27:15.327Z,4.46
2023-02-13T06:32:18.153Z,4.46
2023-02-13T06:37:20.982Z,4.46
2023-02-13T06:42:23.887Z,4.47
2023-02-13T06:47:26.577Z,4.51
2023-02-13T06:52:30.513Z,4.52
2023-02-13T06:57:33.953Z,4.54
2023-02-13T07:02:37.457Z,4.57
2023-02-13T07:07:41.818Z,4.60
2023-02-13T07:12:47.282Z,4.62
2023-02-13T07:17:59.291Z,4.69
2023-02-13T07:23:04.711Z,4.74
2023-02-13T07:28:07.596Z,4.78
2023-02-13T07:33:12.726Z,4.84
2023-02-13T07:38:48.916Z,4.90
2023-02-13T07:43:48.152Z,5.00
2023-02-13T07:48:53.960Z,5.08
2023-02-13T07:53:57.714Z,5.11
2023-02-13T07:59:00.585Z,5.15
2023-02-13T08:04:03.718Z,5.19
2023-02-13T08:09:25.640Z,5.18
2023-02-13T08:14:28.484Z,5.19
2023-02-13T08:19:31.359Z,5.24
2023-02-13T08:24:34.271Z,5.26
2023-02-13T08:29:36.934Z,5.26
2023-02-13T08:34:39.840Z,5.30
2023-02-13T08:39:42.761Z,5.32
2023-02-13T08:44:48.787Z,5.30
2023-02-13T08:49:52.196Z,5.27
2023-02-13T08:54:55.187Z,5.25
2023-02-13T08:59:57.963Z,5.29
2023-02-13T09:05:00.733Z,5.37
2023-02-13T09:10:03.684Z,5.41
2023-02-13T09:15:06.523Z,5.45
2023-02-13T09:20:10.291Z,5.48
2023-02-13T09:25:13.444Z,5.50
2023-02-13T09:30:23.195Z,5.56
2023-02-13T09:35:26.060Z,5.62
2023-02-13T09:40:35.144Z,5.70
2023-02-13T09:45:38.814Z,5.78
2023-02-13T09:50:41.738Z,5.85
2023-02-13T09:55:54.750Z,5.97
2023-02-13T10:01:00.754Z,6.04
2023-02-13T10:06:09.644Z,6.14
2023-02-13T10:11:39.145Z,6.19
2023-02-13T10:17:01.476Z,6.31
2023-02-13T10:22:20.550Z,6.37
2023-02-13T10:27:31.386Z,6.39
2023-02-13T10:33:11.575Z,6.42
2023-02-13T10:38:59.333Z,6.46
2023-02-13T10:44:27.272Z,6.52
2023-02-13T10:49:53.143Z,6.57
2023-02-13T10:55:20.295Z,6.55
2023-02-13T11:00:31.465Z,6.61
2023-02-13T11:05:39.694Z,6.78
2023-02-13T11:10:42.548Z,6.92
2023-02-13T11:15:57.171Z,7.01
2023-02-13T11:21:34.812Z,7.07
2023-02-13T11:26:39.955Z,7.17
2023-02-13T11:31:42.848Z,7.29
2023-02-13T11:36:45.774Z,7.35
2023-02-13T11:41:51.111Z,7.32
2023-02-13T11:46:56.156Z,7.31
2023-02-13T11:52:24.835Z,7.27
2023-02-13T11:57:37.799Z,7.23
2023-02-13T12:02:52.738Z,7.20
2023-02-13T12:08:00.298Z,7.13
2023-02-13T12:13:03.014Z,7.07
2023-02-13T12:18:08.650Z,7.04
2023-02-13T12:23:23.144Z,7.07
2023-02-13T12:28:35.603Z,7.10
2023-02-13T12:34:22.592Z,7.08
2023-02-13T12:39:28.778Z,7.12
2023-02-13T12:44:46.133Z,7.19
2023-02-13T12:50:01.347Z,7.30
2023-02-13T12:55:16.951Z,7.32
2023-02-13T13:00:19.780Z,7.35
2023-02-13T13:05:27.540Z,7.44
2023-02-13T13:10:38.226Z,7.48
2023-02-13T13:15:59.664Z,7.46
2023-02-13T13:21:17.230Z,7.45
2023-02-13T13:26:39.023Z,7.43
2023-02-13T13:32:07.772Z,7.42
2023-02-13T13:37:29.895Z,7.39
2023-02-13T13:42:59.318Z,7.34
2023-02-13T13:48:10.565Z,7.28
2023-02-13T13:53:25.588Z,7.20
2023-02-13T13:58:50.289Z,7.13
2023-02-13T14:03:57.589Z,7.05
2023-02-13T14:09:06.374Z,7.02
2023-02-13T14:14:27.424Z,6.97
2023-02-13T14:19:32.407Z,6.92
2023-02-13T14:24:36.097Z,6.91
2023-02-13T14:29:39.107Z,6.91
2023-02-13T14:34:49.255Z,6.90
2023-02-13T14:40:17.911Z,6.93
2023-02-13T14:45:33.143Z,6.91
2023-02-13T14:50:52.399Z,6.90
2023-02-13T14:56:08.822Z,6.92
2023-02-13T15:01:21.172Z,6.93
2023-02-13T15:06:34.548Z,6.89
2023-02-13T15:11:43.716Z,6.87
2023-02-13T15:16:51.592Z,6.86
2023-02-13T15:22:00.699Z,6.82
2023-02-13T15:27:06.163Z,6.77
2023-02-13T15:32:20.531Z,6.72
2023-02-13T15:37:27.178Z,6.71
2023-02-13T15:42:29.956Z,6.69
2023-02-13T15:47:34.105Z,6.64
2023-02-13T15:52:39.070Z,6.60
2023-02-13T15:57:41.811Z,6.59
2023-02-13T16:02:47.905Z,6.58
2023-02-13T16:07:54.108Z,6.54
2023-02-13T16:13:00.519Z,6.54
2023-02-13T16:18:06.267Z,6.52
2023-02-13T16:23:18.183Z,6.49
2023-02-13T16:28:27.574Z,6.43
2023-02-13T16:33:32.315Z,6.40
2023-02-13T16:38:37.519Z,6.39
2023-02-13T16:43:54.137Z,6.35
2023-02-13T16:48:56.888Z,6.35
2023-02-13T16:54:04.962Z,6.32
2023-02-13T16:59:28.133Z,6.30
2023-02-13T17:04:31.067Z,6.31
2023-02-13T17:09:33.781Z,6.31
2023-02-13T17:14:36.568Z,6.29
2023-02-13T17:19:39.369Z,6.26
2023-02-13T17:24:42.069Z,6.25
2023-02-13T17:29:44.726Z,6.25
2023-02-13T17:34:47.880Z,6.26
2023-02-13T17:39:50.764Z,6.23
2023-02-13T17:44:55.414Z,6.17
2023-02-13T17:50:08.882Z,6.16
2023-02-13T17:55:16.176Z,6.12
2023-02-13T18:00:20.937Z,6.08
2023-02-13T18:05:23.768Z,6.06
2023-02-13T18:10:28.264Z,6.04
2023-02-13T18:15:35.804Z,6.01
2023-02-13T18:20:39.203Z,5.97
2023-02-13T18:25:41.870Z,5.94
2023-02-13T18:30:44.653Z,5.92
2023-02-13T18:35:47.432Z,5.90
2023-02-13T18:40:50.120Z,5.89
2023-02-13T18:45:52.922Z,5.87
2023-02-13T18:50:55.747Z,5.85
2023-02-13T18:56:03.772Z,5.87
2023-02-13T19:01:19.035Z,5.87
2023-02-13T19:06:24.149Z,5.85
2023-02-13T19:11:27.836Z,5.87
2023-02-13T19:16:32.203Z,5.87
2023-02-13T19:21:38.003Z,5.85
2023-02-13T19:26:41.011Z,5.81
2023-02-13T19:31:43.931Z,5.78
2023-02-13T19:36:46.915Z,5.73
2023-02-13T19:41:49.615Z,5.67
2023-02-13T19:46:52.305Z,5.64
2023-02-13T19:51:54.997Z,5.59
2023-02-13T19:57:05.101Z,5.52
2023-02-13T20:02:14.253Z,5.50
2023-02-13T20:07:17.131Z,5.48
2023-02-13T20:12:19.825Z,5.43
2023-02-13T20:17:25.478Z,5.38
2023-02-13T20:22:28.208Z,5.35
2023-02-13T20:27:30.884Z,5.30
2023-02-13T20:32:33.654Z,5.26
2023-02-13T20:37:36.498Z,5.22
2023-02-13T20:42:39.203Z,5.19
2023-02-13T20:47:42.930Z,5.13
2023-02-13T20:52:45.723Z,5.09
2023-02-13T20:57:48.617Z,5.07
2023-02-13T21:02:52.008Z,5.02
2023-02-13T21:07:54.763Z,4.99
2023-02-13T21:12:57.462Z,4.96
2023-02-13T21:18:01.801Z,4.89
2023-02-13T21:23:05.596Z,4.85
2023-02-13T21:28:08.603Z,4.80
2023-02-13T21:33:11.303Z,4.74
2023-02-13T21:38:14.006Z,4.68
2023-02-13T21:43:16.818Z,4.61
2023-02-13T21:48:19.506Z,4.55
2023-02-13T21:53:22.234Z,4.50
2023-02-13T21:58:26.146Z,4.43
2023-02-13T22:03:28.893Z,4.35
2023-02-13T22:08:31.575Z,4.28
2023-02-13T22:13:34.932Z,4.22
2023-02-13T22:18:43.596Z,4.16
2023-02-13T22:23:47.401Z,4.09
2023-02-13T22:28:51.534Z,4.05
2023-02-13T22:34:04.338Z,4.02
2023-02-13T22:39:09.579Z,3.96
2023-02-13T22:44:12.307Z,3.84
2023-02-13T22:49:14.981Z,3.75
2023-02-13T22:54:17.735Z,3.66
2023-02-13T22:59:20.533Z,3.55
2023-02-13T23:04:23.284Z,3.43
2023-02-13T23:09:26.742Z,3.27
2023-02-13T23:14:29.421Z,3.17
2023-02-13T23:19:32.245Z,3.10
2023-02-13T23:24:34.991Z,3.05
2023-02-13T23:29:37.749Z,2.99
2023-02-13T23:34:40.429Z,2.89
2023-02-13T23:39:43.347Z,2.83
2023-02-13T23:44:46.030Z,2.84
2023-02-13T23:49:49.133Z,2.90
2023-02-13T23:54:51.817Z,2.89
2023-02-13T23:59:54.480Z,2.80
